Terminal Aerodrome Forecast
Issued by NWS Charleston, WV

Current Version | Previous Version | Graphics & Text | Print | Product List | Glossary On
Versions: 1 2 3 4 5 6 7 8 9 10 11 12 13 14 15 16 17 18 19 20 21 22 23 24 25 26 27 28 29 30 31
000
FTUS41 KRLX 131721
TAFCRW
TAF
KCRW 131721Z 1318/1418 06004KT P6SM FEW045
     FM140500 00000KT 5SM BR SCT070
     FM140700 00000KT P6SM BKN070
     FM141500 00000KT P6SM -SHRA OVC050 PROB30 1415/1418 4SM -RA=

USA.gov is the U.S. government's official web portal to all federal, state and local government web resources and services.